createdAt,value
2024-02-20T00:00:39.304Z,23.93
2024-02-20T00:01:39.305Z,23.93
2024-02-20T00:02:39.269Z,23.93
2024-02-20T00:03:39.346Z,23.93
2024-02-20T00:04:39.551Z,23.92
2024-02-20T00:05:39.551Z,23.93
2024-02-20T00:06:39.536Z,23.92
2024-02-20T00:07:39.640Z,23.92
2024-02-20T00:08:39.544Z,23.92
2024-02-20T00:09:39.572Z,23.92
2024-02-20T00:10:39.711Z,23.92
2024-02-20T00:11:39.776Z,23.92
2024-02-20T00:12:39.727Z,23.92
2024-02-20T00:13:39.832Z,23.92
2024-02-20T00:14:39.800Z,23.92
2024-02-20T00:15:39.860Z,23.92
2024-02-20T00:16:39.951Z,23.91
2024-02-20T00:17:39.924Z,23.92
2024-02-20T00:18:39.979Z,23.92
2024-02-20T00:19:40.045Z,23.92
2024-02-20T00:20:40.037Z,23.92
2024-02-20T00:21:40.042Z,23.92
2024-02-20T00:22:40.157Z,23.92
2024-02-20T00:23:40.142Z,23.92
2024-02-20T00:24:40.173Z,23.91
2024-02-20T00:25:40.298Z,23.91
2024-02-20T00:26:40.259Z,23.91
2024-02-20T00:27:40.304Z,23.91
2024-02-20T00:28:40.373Z,23.91
2024-02-20T00:29:40.393Z,23.91
2024-02-20T00:30:40.483Z,23.91
2024-02-20T00:31:40.513Z,23.91
2024-02-20T00:32:40.602Z,23.91
2024-02-20T00:33:40.648Z,23.91
2024-02-20T00:34:40.704Z,23.90
2024-02-20T00:36:40.707Z,23.90
2024-02-20T00:37:40.825Z,23.90
2024-02-20T00:38:40.768Z,23.90
2024-02-20T00:39:40.832Z,23.90
2024-02-20T00:40:41.116Z,23.90
2024-02-20T00:41:40.926Z,23.90
2024-02-20T00:42:40.958Z,23.90
2024-02-20T00:43:41.047Z,23.90
2024-02-20T00:44:41.050Z,23.90
2024-02-20T00:45:41.157Z,23.89
2024-02-20T00:46:41.216Z,23.90
2024-02-20T00:47:41.248Z,23.89
2024-02-20T00:48:41.326Z,23.90
2024-02-20T00:49:41.391Z,23.90
2024-02-20T00:50:41.331Z,23.90
2024-02-20T00:51:41.403Z,23.89
2024-02-20T00:52:41.486Z,23.89
2024-02-20T00:53:41.482Z,23.90
2024-02-20T00:54:41.612Z,23.89
2024-02-20T00:55:41.684Z,23.89
2024-02-20T00:56:41.628Z,23.89
2024-02-20T00:57:41.678Z,23.89
2024-02-20T00:58:41.770Z,23.88
2024-02-20T00:59:41.769Z,23.89
2024-02-20T01:00:41.880Z,23.89
2024-02-20T01:01:41.986Z,23.89
2024-02-20T01:03:04.951Z,23.89
2024-02-20T01:03:41.910Z,23.86
2024-02-20T01:04:42.266Z,23.88
2024-02-20T01:05:42.023Z,23.88
2024-02-20T01:06:41.947Z,23.88
2024-02-20T01:07:41.973Z,23.89
2024-02-20T01:08:41.910Z,23.89
2024-02-20T01:09:41.895Z,23.89
2024-02-20T01:10:42.004Z,23.88
2024-02-20T01:11:42.052Z,23.89
2024-02-20T01:12:42.087Z,23.89
2024-02-20T01:13:42.148Z,23.88
2024-02-20T01:14:42.221Z,23.89
2024-02-20T01:15:42.253Z,23.89
2024-02-20T01:16:42.345Z,23.88
2024-02-20T01:17:42.420Z,23.88
2024-02-20T01:18:42.451Z,23.88
2024-02-20T01:19:42.508Z,23.89
2024-02-20T01:20:42.582Z,23.89
2024-02-20T01:21:42.576Z,23.88
2024-02-20T01:22:42.743Z,23.88
2024-02-20T01:23:42.706Z,23.88
2024-02-20T01:24:42.764Z,23.89
2024-02-20T01:25:42.878Z,23.88
2024-02-20T01:26:42.885Z,23.89
2024-02-20T01:27:42.965Z,23.88
2024-02-20T01:28:43.096Z,23.88
2024-02-20T01:29:43.083Z,23.88
2024-02-20T01:30:43.152Z,23.88
2024-02-20T01:31:43.252Z,23.88
2024-02-20T01:32:43.293Z,23.88
2024-02-20T01:33:43.352Z,23.88
2024-02-20T01:34:43.402Z,23.87
2024-02-20T01:35:43.424Z,23.87
2024-02-20T01:36:43.482Z,23.87
2024-02-20T01:37:43.673Z,23.87
2024-02-20T01:38:43.599Z,23.88
2024-02-20T01:39:43.676Z,23.88
2024-02-20T01:40:43.761Z,23.87
2024-02-20T01:41:43.764Z,23.88
2024-02-20T01:42:43.829Z,23.87
2024-02-20T01:43:43.893Z,23.87
2024-02-20T01:44:43.984Z,23.88
2024-02-20T01:45:44.048Z,23.87
2024-02-20T01:46:44.127Z,23.87
2024-02-20T01:47:44.221Z,23.87
2024-02-20T01:48:44.332Z,23.87
2024-02-20T01:49:44.453Z,23.87
2024-02-20T01:50:44.517Z,23.87
2024-02-20T01:51:44.381Z,23.88
2024-02-20T01:52:44.406Z,23.87
2024-02-20T01:53:44.491Z,23.88
2024-02-20T01:54:44.538Z,23.87
2024-02-20T01:55:44.633Z,23.86
2024-02-20T01:56:44.639Z,23.87
2024-02-20T01:57:44.693Z,23.87
2024-02-20T01:58:44.756Z,23.87
2024-02-20T01:59:44.818Z,23.88
2024-02-20T02:00:44.944Z,23.87
2024-02-20T02:01:44.968Z,23.86
2024-02-20T02:02:44.974Z,23.87
2024-02-20T02:03:45.110Z,23.86
2024-02-20T02:04:45.267Z,23.86
2024-02-20T02:05:45.401Z,23.86
2024-02-20T02:06:45.230Z,23.85
2024-02-20T02:07:45.305Z,23.86
2024-02-20T02:08:45.316Z,23.86
2024-02-20T02:09:45.390Z,23.86
2024-02-20T02:10:46.008Z,23.87
2024-02-20T02:11:45.556Z,23.86
2024-02-20T02:12:45.554Z,23.86
2024-02-20T02:13:45.615Z,23.86
2024-02-20T02:14:45.681Z,23.86
2024-02-20T02:15:45.767Z,23.86
2024-02-20T02:16:45.836Z,23.85
2024-02-20T02:17:45.951Z,23.86
2024-02-20T02:18:46.000Z,23.86
2024-02-20T02:19:45.959Z,23.86
2024-02-20T02:20:46.037Z,23.86
2024-02-20T02:21:46.077Z,23.85
2024-02-20T02:22:46.145Z,23.86
2024-02-20T02:23:46.203Z,23.86
2024-02-20T02:24:46.254Z,23.85
2024-02-20T02:25:46.352Z,23.86
2024-02-20T02:26:46.369Z,23.85
2024-02-20T02:27:46.434Z,23.85
2024-02-20T02:28:46.497Z,23.85
2024-02-20T02:29:46.544Z,23.85
2024-02-20T02:30:46.609Z,23.86
2024-02-20T02:31:46.655Z,23.86
2024-02-20T02:32:46.767Z,23.85
2024-02-20T02:33:46.928Z,23.85
2024-02-20T02:34:46.933Z,23.85
2024-02-20T02:35:46.915Z,23.86
2024-02-20T02:36:46.921Z,23.85
2024-02-20T02:37:46.999Z,23.85
2024-02-20T02:38:47.068Z,23.85
2024-02-20T02:39:47.105Z,23.86
2024-02-20T02:40:47.177Z,23.85
2024-02-20T02:41:47.205Z,23.85
2024-02-20T02:42:47.274Z,23.85
2024-02-20T02:43:47.352Z,23.85
2024-02-20T02:44:47.366Z,23.85
2024-02-20T02:45:47.475Z,23.85
2024-02-20T02:46:47.491Z,23.84
2024-02-20T02:47:47.608Z,23.85
2024-02-20T02:48:47.643Z,23.85
2024-02-20T02:49:47.873Z,23.85
2024-02-20T02:50:47.744Z,23.84
2024-02-20T02:51:47.788Z,23.84
2024-02-20T02:52:47.864Z,23.84
2024-02-20T02:53:47.903Z,23.84
2024-02-20T02:54:47.953Z,23.84
2024-02-20T02:55:48.050Z,23.84
2024-02-20T02:56:48.066Z,23.85
2024-02-20T02:57:48.177Z,23.84
2024-02-20T02:58:48.186Z,23.84
2024-02-20T02:59:48.313Z,23.85
2024-02-20T03:00:48.355Z,23.84
2024-02-20T03:01:48.486Z,23.84
2024-02-20T03:02:48.518Z,23.84
2024-02-20T03:03:48.483Z,23.84
2024-02-20T03:04:48.574Z,23.84
2024-02-20T03:05:48.616Z,23.85
2024-02-20T03:06:49.008Z,23.84
2024-02-20T03:07:48.975Z,23.84
2024-02-20T03:08:48.889Z,23.84
2024-02-20T03:09:48.880Z,23.84
2024-02-20T03:10:49.048Z,23.84
2024-02-20T03:11:48.973Z,23.83
2024-02-20T03:12:49.013Z,23.84
2024-02-20T03:13:49.152Z,23.84
2024-02-20T03:14:49.912Z,23.83
2024-02-20T03:15:49.203Z,23.84
2024-02-20T03:16:49.237Z,23.83
2024-02-20T03:17:49.331Z,23.83
2024-02-20T03:18:49.416Z,23.83
2024-02-20T03:19:49.485Z,23.84
2024-02-20T03:20:49.509Z,23.82
2024-02-20T03:21:49.500Z,23.83
2024-02-20T03:22:49.577Z,23.83
2024-02-20T03:23:49.633Z,23.83
2024-02-20T03:24:49.690Z,23.83
2024-02-20T03:25:49.771Z,23.83
2024-02-20T03:26:49.789Z,23.83
2024-02-20T03:27:49.843Z,23.83
2024-02-20T03:28:49.890Z,23.83
2024-02-20T03:29:49.970Z,23.83
2024-02-20T03:30:50.060Z,23.83
2024-02-20T03:31:50.042Z,23.83
2024-02-20T03:32:50.167Z,23.82
2024-02-20T03:33:50.291Z,23.83
2024-02-20T03:34:50.262Z,23.82
2024-02-20T03:35:50.315Z,23.83
2024-02-20T03:36:50.356Z,23.83
2024-02-20T03:37:50.404Z,23.82
2024-02-20T03:38:50.459Z,23.83
2024-02-20T03:39:50.555Z,23.83
2024-02-20T03:40:50.614Z,23.82
2024-02-20T03:41:50.632Z,23.82
2024-02-20T03:42:50.739Z,23.82
2024-02-20T03:43:50.754Z,23.83
2024-02-20T03:44:50.816Z,23.82
2024-02-20T03:45:50.952Z,23.82
2024-02-20T03:46:50.915Z,23.82
2024-02-20T03:47:51.064Z,23.82
2024-02-20T03:48:51.150Z,23.82
2024-02-20T03:49:51.223Z,23.82
2024-02-20T03:50:51.190Z,23.82
2024-02-20T03:51:51.260Z,23.82
2024-02-20T03:52:51.255Z,23.82
2024-02-20T03:53:51.341Z,23.82
2024-02-20T03:54:51.395Z,23.82
2024-02-20T03:55:51.582Z,23.81
2024-02-20T03:56:51.500Z,23.82
2024-02-20T03:57:51.599Z,23.81
2024-02-20T03:58:51.628Z,23.82
2024-02-20T03:59:51.692Z,23.82
2024-02-20T04:00:51.903Z,23.82
2024-02-20T04:01:51.852Z,23.81
2024-02-20T04:02:51.846Z,23.82
2024-02-20T04:03:52.044Z,23.82
2024-02-20T04:04:52.003Z,23.82
2024-02-20T04:05:52.119Z,23.81
2024-02-20T04:06:52.171Z,23.81
2024-02-20T04:07:52.170Z,23.82
2024-02-20T04:08:52.216Z,23.81
2024-02-20T04:09:52.294Z,23.80
2024-02-20T04:10:52.594Z,23.81
2024-02-20T04:11:52.386Z,23.81
2024-02-20T04:12:52.503Z,23.80
2024-02-20T04:13:52.520Z,23.81
2024-02-20T04:14:52.586Z,23.81
2024-02-20T04:15:52.782Z,23.81
2024-02-20T04:16:52.678Z,23.81
2024-02-20T04:17:52.782Z,23.81
2024-02-20T04:18:52.910Z,23.80
2024-02-20T04:19:52.918Z,23.81
2024-02-20T04:20:52.960Z,23.80
2024-02-20T04:21:53.021Z,23.81
2024-02-20T04:22:53.052Z,23.81
2024-02-20T04:23:53.125Z,23.81
2024-02-20T04:24:53.223Z,23.80
2024-02-20T04:25:53.265Z,23.81
2024-02-20T04:26:53.290Z,23.81
2024-02-20T04:27:53.420Z,23.81
2024-02-20T04:28:53.415Z,23.81
2024-02-20T04:29:53.462Z,23.81
2024-02-20T04:30:53.620Z,23.80
2024-02-20T04:31:53.582Z,23.80
2024-02-20T04:32:53.681Z,23.80
2024-02-20T04:33:53.794Z,23.80
2024-02-20T04:34:53.874Z,23.80
2024-02-20T04:35:53.824Z,23.81
2024-02-20T04:37:01.203Z,23.79
2024-02-20T04:38:01.104Z,23.79
2024-02-20T04:39:01.133Z,23.79
2024-02-20T04:40:01.130Z,23.80
2024-02-20T04:41:01.119Z,23.80
2024-02-20T04:42:01.111Z,23.80
2024-02-20T04:43:01.187Z,23.80
2024-02-20T04:44:01.152Z,23.80
2024-02-20T04:45:01.142Z,23.80
2024-02-20T04:46:01.145Z,23.80
2024-02-20T04:47:01.096Z,23.79
2024-02-20T04:48:01.122Z,23.79
2024-02-20T04:49:01.242Z,23.79
2024-02-20T04:50:01.222Z,23.79
2024-02-20T04:51:01.116Z,23.80
2024-02-20T04:52:01.150Z,23.79
2024-02-20T04:53:01.113Z,23.79
2024-02-20T04:54:01.120Z,23.79
2024-02-20T04:55:01.187Z,23.79
2024-02-20T04:56:01.118Z,23.79
2024-02-20T04:57:01.136Z,23.79
2024-02-20T04:58:01.178Z,23.79
2024-02-20T04:59:01.119Z,23.80
2024-02-20T05:00:01.242Z,23.79
2024-02-20T05:01:01.178Z,23.79
2024-02-20T05:02:01.133Z,23.78
2024-02-20T05:03:01.116Z,23.80
2024-02-20T05:04:01.222Z,23.80
2024-02-20T05:05:01.181Z,23.79
2024-02-20T05:06:01.153Z,23.79
2024-02-20T05:07:01.202Z,23.80
2024-02-20T05:08:01.194Z,23.80
2024-02-20T05:09:01.123Z,23.80
2024-02-20T05:10:01.269Z,23.80
2024-02-20T05:11:01.202Z,23.81
2024-02-20T05:12:01.131Z,23.82
2024-02-20T05:13:01.189Z,23.82
2024-02-20T05:14:01.134Z,23.82
2024-02-20T05:15:01.167Z,23.81
2024-02-20T05:16:01.247Z,23.82
2024-02-20T05:17:01.170Z,23.82
2024-02-20T05:18:01.167Z,23.82
2024-02-20T05:19:01.243Z,23.82
2024-02-20T05:20:01.362Z,23.82
2024-02-20T05:21:01.159Z,23.82
2024-02-20T05:22:01.183Z,23.82
2024-02-20T05:23:01.189Z,23.81
2024-02-20T05:24:01.251Z,23.81
2024-02-20T05:25:01.292Z,23.82
2024-02-20T05:26:01.335Z,23.81
2024-02-20T05:27:01.324Z,23.81
2024-02-20T05:28:01.379Z,23.82
2024-02-20T05:29:01.397Z,23.82
2024-02-20T05:30:01.454Z,23.81
2024-02-20T05:31:01.464Z,23.81
2024-02-20T05:32:01.495Z,23.82
2024-02-20T05:33:01.529Z,23.81
2024-02-20T05:34:01.739Z,23.81
2024-02-20T05:35:01.827Z,23.81
2024-02-20T05:36:01.638Z,23.82
2024-02-20T05:37:01.758Z,23.82
2024-02-20T05:38:01.660Z,23.81
2024-02-20T05:39:01.688Z,23.81
2024-02-20T05:40:01.839Z,23.82
2024-02-20T05:41:01.760Z,23.81
2024-02-20T05:42:01.798Z,23.82
2024-02-20T05:43:01.853Z,23.82
2024-02-20T05:44:01.996Z,23.82
2024-02-20T05:45:01.942Z,23.82
2024-02-20T05:46:01.963Z,23.82
2024-02-20T05:47:01.965Z,23.82
2024-02-20T05:48:02.220Z,23.82
2024-02-20T05:49:02.575Z,23.83
2024-02-20T05:50:02.282Z,23.83
2024-02-20T05:51:02.094Z,23.83
2024-02-20T05:52:02.156Z,23.82
2024-02-20T05:53:02.151Z,23.83
2024-02-20T05:54:02.229Z,23.83
2024-02-20T05:55:02.290Z,23.83
2024-02-20T05:56:02.286Z,23.83
2024-02-20T05:57:02.293Z,23.83
2024-02-20T05:58:02.360Z,23.84
2024-02-20T05:59:02.343Z,23.83
2024-02-20T06:00:02.404Z,23.84
2024-02-20T06:01:02.624Z,23.83
2024-02-20T06:02:02.526Z,23.84
2024-02-20T06:03:02.485Z,23.84
2024-02-20T06:04:02.575Z,23.84
2024-02-20T06:05:02.638Z,23.84
2024-02-20T06:06:02.726Z,23.85
2024-02-20T06:07:02.734Z,23.73
2024-02-20T06:08:02.668Z,23.51
2024-02-20T06:09:02.682Z,23.15
2024-02-20T06:10:02.761Z,22.88
2024-02-20T06:11:02.790Z,22.65
2024-02-20T06:12:02.835Z,22.47
2024-02-20T06:13:02.908Z,22.43
2024-02-20T06:14:02.899Z,22.47
2024-02-20T06:15:04.795Z,22.55
2024-02-20T06:16:02.977Z,22.63
2024-02-20T06:17:02.945Z,22.72
2024-02-20T06:18:03.009Z,22.81
2024-02-20T06:19:03.003Z,22.89
2024-02-20T06:20:03.176Z,22.98
2024-02-20T06:21:03.024Z,23.05
2024-02-20T06:22:03.016Z,23.12
2024-02-20T06:23:02.943Z,23.18
2024-02-20T06:24:02.975Z,23.23
2024-02-20T06:25:02.981Z,23.27
2024-02-20T06:26:02.996Z,23.33
2024-02-20T06:27:02.970Z,23.36
2024-02-20T06:28:03.002Z,23.39
2024-02-20T06:29:03.059Z,23.44
2024-02-20T06:30:03.139Z,23.47
2024-02-20T06:31:03.072Z,23.51
2024-02-20T06:32:02.969Z,23.53
2024-02-20T06:33:03.093Z,23.55
2024-02-20T06:34:03.177Z,23.58
2024-02-20T06:35:03.013Z,23.61
2024-02-20T06:36:03.014Z,23.64
2024-02-20T06:37:03.017Z,23.66
2024-02-20T06:38:03.004Z,23.69
2024-02-20T06:39:02.966Z,23.72
2024-02-20T06:40:02.987Z,23.77
2024-02-20T06:41:03.436Z,23.82
2024-02-20T06:42:02.961Z,23.86
2024-02-20T06:43:02.995Z,23.90
2024-02-20T06:44:02.980Z,23.95
2024-02-20T06:45:25.780Z,23.99
2024-02-20T06:46:03.025Z,23.99
2024-02-20T06:47:02.969Z,24.03
2024-02-20T06:48:03.095Z,24.06
2024-02-20T06:49:03.092Z,24.09
2024-02-20T06:50:03.140Z,24.12
2024-02-20T06:51:03.008Z,24.14
2024-02-20T06:52:03.033Z,24.18
2024-02-20T06:53:02.982Z,24.20
2024-02-20T06:54:02.981Z,24.22
2024-02-20T06:55:02.985Z,24.24
2024-02-20T06:56:03.033Z,24.26
2024-02-20T06:57:02.999Z,24.29
2024-02-20T06:58:02.994Z,24.30
2024-02-20T06:59:03.805Z,24.32
2024-02-20T07:00:02.987Z,24.34
2024-02-20T07:01:03.096Z,24.36
2024-02-20T07:02:02.999Z,24.37
2024-02-20T07:03:03.068Z,24.40
2024-02-20T07:04:03.213Z,24.42
2024-02-20T07:05:03.280Z,24.44
2024-02-20T07:06:03.410Z,24.45
2024-02-20T07:07:03.498Z,24.46
2024-02-20T07:08:03.375Z,24.48
2024-02-20T07:09:03.419Z,24.49
2024-02-20T07:10:04.022Z,24.50
2024-02-20T07:11:03.671Z,24.52
2024-02-20T07:12:03.640Z,24.54
2024-02-20T07:13:03.797Z,24.55
2024-02-20T07:14:03.734Z,24.57
2024-02-20T07:15:03.813Z,24.59
2024-02-20T07:16:03.962Z,24.58
2024-02-20T07:17:03.930Z,24.60
2024-02-20T07:18:03.981Z,24.61
2024-02-20T07:19:04.090Z,24.63
2024-02-20T07:20:04.252Z,24.65
2024-02-20T07:21:04.205Z,24.66
2024-02-20T07:22:04.266Z,24.67
2024-02-20T07:23:04.213Z,24.68
2024-02-20T07:24:04.278Z,24.68
2024-02-20T07:25:04.378Z,24.70
2024-02-20T07:26:04.410Z,24.69
2024-02-20T07:27:04.440Z,24.71
2024-02-20T07:28:04.480Z,24.72
2024-02-20T07:29:04.522Z,24.72
2024-02-20T07:30:04.576Z,24.72
2024-02-20T07:31:04.711Z,24.72
2024-02-20T07:32:04.637Z,24.73
2024-02-20T07:33:04.868Z,24.74
2024-02-20T07:34:09.790Z,24.75
2024-02-20T07:35:05.905Z,24.75
2024-02-20T07:36:04.973Z,24.76
2024-02-20T07:37:04.768Z,24.76
2024-02-20T07:38:04.721Z,24.78
2024-02-20T07:39:04.754Z,24.80
2024-02-20T07:40:04.844Z,24.80
2024-02-20T07:41:05.129Z,24.81
2024-02-20T07:42:04.735Z,24.82
2024-02-20T07:43:04.815Z,24.83
2024-02-20T07:44:04.738Z,24.84
2024-02-20T07:45:04.739Z,24.85
2024-02-20T07:46:04.814Z,24.86
2024-02-20T07:47:04.815Z,24.87
2024-02-20T07:48:04.874Z,24.87
2024-02-20T07:49:04.881Z,24.89
2024-02-20T07:50:04.947Z,24.91
2024-02-20T07:51:04.842Z,24.91
2024-02-20T07:52:04.799Z,24.92
2024-02-20T07:53:04.781Z,24.94
2024-02-20T07:54:04.730Z,24.97
2024-02-20T07:55:04.830Z,24.99
2024-02-20T07:56:04.832Z,25.01
2024-02-20T07:57:04.786Z,25.03
2024-02-20T07:58:04.822Z,25.05
2024-02-20T07:59:04.805Z,25.06
2024-02-20T08:00:04.808Z,25.08
2024-02-20T08:01:04.958Z,25.08
2024-02-20T08:02:04.913Z,25.09
2024-02-20T08:03:04.866Z,25.10
2024-02-20T08:04:04.984Z,25.11
2024-02-20T08:05:05.032Z,25.13
2024-02-20T08:06:04.897Z,25.15
2024-02-20T08:07:04.978Z,25.17
2024-02-20T08:08:04.973Z,25.18
2024-02-20T08:09:04.888Z,25.19
2024-02-20T08:10:04.925Z,25.18
2024-02-20T08:11:05.006Z,25.18
2024-02-20T08:12:04.929Z,25.19
2024-02-20T08:13:04.967Z,25.20
2024-02-20T08:14:04.933Z,25.21
2024-02-20T08:15:04.925Z,25.22
2024-02-20T08:16:05.026Z,25.22
2024-02-20T08:17:04.967Z,25.23
2024-02-20T08:18:05.040Z,25.24
2024-02-20T08:19:05.125Z,25.25
2024-02-20T08:20:05.064Z,25.26
2024-02-20T08:21:05.072Z,25.27
2024-02-20T08:22:05.083Z,25.29
2024-02-20T08:23:04.997Z,25.30
2024-02-20T08:24:05.009Z,25.32
2024-02-20T08:25:05.085Z,25.33
2024-02-20T08:26:05.067Z,25.32
2024-02-20T08:27:05.136Z,25.32
2024-02-20T08:28:05.166Z,25.34
2024-02-20T08:29:05.145Z,25.35
2024-02-20T08:30:05.188Z,25.36
2024-02-20T08:31:05.277Z,25.36
2024-02-20T08:32:05.225Z,25.22
2024-02-20T08:33:05.266Z,24.94
2024-02-20T08:34:06.719Z,24.62
2024-02-20T08:35:05.612Z,24.31
2024-02-20T08:36:05.502Z,24.02
2024-02-20T08:37:05.561Z,23.77
2024-02-20T08:38:05.626Z,23.55
2024-02-20T08:39:05.652Z,23.37
2024-02-20T08:40:05.711Z,23.22
2024-02-20T08:41:05.706Z,23.06
2024-02-20T08:42:05.751Z,22.93
2024-02-20T08:43:05.847Z,22.83
2024-02-20T08:44:05.878Z,22.72
2024-02-20T08:45:05.906Z,22.61
2024-02-20T08:46:05.999Z,22.51
2024-02-20T08:47:05.921Z,22.42
2024-02-20T08:48:06.126Z,22.33
2024-02-20T08:49:06.207Z,22.23
2024-02-20T08:50:06.051Z,22.13
2024-02-20T08:51:06.068Z,22.05
2024-02-20T08:52:06.170Z,21.98
2024-02-20T08:53:06.210Z,22.05
2024-02-20T08:54:06.265Z,22.21
2024-02-20T08:55:06.285Z,22.35
2024-02-20T08:56:06.313Z,22.52
2024-02-20T08:57:06.349Z,22.66
2024-02-20T08:58:06.423Z,22.80
2024-02-20T08:59:06.433Z,22.93
2024-02-20T09:00:06.453Z,23.06
2024-02-20T09:01:06.573Z,23.18
2024-02-20T09:02:06.582Z,23.29
2024-02-20T09:03:06.598Z,23.40
2024-02-20T09:04:06.728Z,23.50
2024-02-20T09:05:06.739Z,23.61
2024-02-20T09:06:06.916Z,23.71
2024-02-20T09:07:06.894Z,23.81
2024-02-20T09:08:06.862Z,23.90
2024-02-20T09:09:06.820Z,23.98
2024-02-20T09:10:06.873Z,24.09
2024-02-20T09:11:06.900Z,24.19
2024-02-20T09:12:06.903Z,24.25
2024-02-20T09:13:07.045Z,24.31
2024-02-20T09:14:07.028Z,24.36
2024-02-20T09:15:07.116Z,24.40
2024-02-20T09:16:07.290Z,24.42
2024-02-20T09:17:07.248Z,24.46
2024-02-20T09:18:08.524Z,24.48
2024-02-20T09:19:07.359Z,24.51
2024-02-20T09:20:07.491Z,24.54
2024-02-20T09:21:07.546Z,24.57
2024-02-20T09:22:07.535Z,24.60
2024-02-20T09:23:07.592Z,24.62
2024-02-20T09:24:07.566Z,24.64
2024-02-20T09:25:07.665Z,24.67
2024-02-20T09:26:07.886Z,24.69
2024-02-20T09:27:07.711Z,24.72
2024-02-20T09:28:07.813Z,24.74
2024-02-20T09:29:07.761Z,24.77
2024-02-20T09:30:07.892Z,24.80
2024-02-20T09:31:07.900Z,24.82
2024-02-20T09:32:07.867Z,24.83
2024-02-20T09:33:08.089Z,24.86
2024-02-20T09:34:08.056Z,24.87
2024-02-20T09:35:07.968Z,24.89
2024-02-20T09:36:07.991Z,24.91
2024-02-20T09:37:08.047Z,24.93
2024-02-20T09:38:08.001Z,24.95
2024-02-20T09:39:08.033Z,24.94
2024-02-20T09:40:08.119Z,24.82
2024-02-20T09:41:08.149Z,24.64
2024-02-20T09:42:08.189Z,24.55
2024-02-20T09:43:08.284Z,24.53
2024-02-20T09:44:08.298Z,24.54
2024-02-20T09:45:08.370Z,24.55
2024-02-20T09:46:08.520Z,24.59
2024-02-20T09:47:08.597Z,24.62
2024-02-20T09:48:08.680Z,24.65
2024-02-20T09:49:08.782Z,24.69
2024-02-20T09:50:08.690Z,24.74
2024-02-20T09:51:08.805Z,24.77
2024-02-20T09:52:08.825Z,24.83
2024-02-20T09:53:08.787Z,24.86
2024-02-20T09:54:08.816Z,24.89
2024-02-20T09:55:08.878Z,24.94
2024-02-20T09:56:08.862Z,24.97
2024-02-20T09:57:08.882Z,25.00
2024-02-20T09:58:08.929Z,25.04
2024-02-20T09:59:08.944Z,25.07
2024-02-20T10:00:08.936Z,25.09
2024-02-20T10:01:09.116Z,25.12
2024-02-20T10:02:09.028Z,25.14
2024-02-20T10:03:32.075Z,25.15
2024-02-20T10:04:09.697Z,25.14
2024-02-20T10:05:09.064Z,25.16
2024-02-20T10:06:08.981Z,25.18
2024-02-20T10:07:09.098Z,25.19
2024-02-20T10:08:08.963Z,25.22
2024-02-20T10:09:09.008Z,25.23
2024-02-20T10:10:09.008Z,25.23
2024-02-20T10:11:09.254Z,25.24
2024-02-20T10:12:09.062Z,25.24
2024-02-20T10:13:09.048Z,25.27
2024-02-20T10:14:08.991Z,25.27
2024-02-20T10:15:08.978Z,25.28
2024-02-20T10:16:09.000Z,25.29
2024-02-20T10:17:08.995Z,25.30
2024-02-20T10:18:09.133Z,25.32
2024-02-20T10:19:09.087Z,25.33
2024-02-20T10:20:09.157Z,25.34
2024-02-20T10:21:08.996Z,25.35
2024-02-20T10:22:09.067Z,25.37
2024-02-20T10:23:09.067Z,25.38
2024-02-20T10:24:11.898Z,25.38
2024-02-20T10:25:10.011Z,25.38
2024-02-20T10:26:09.001Z,25.41
2024-02-20T10:27:09.010Z,25.43
2024-02-20T10:28:09.286Z,25.44
2024-02-20T10:29:08.997Z,25.45
2024-02-20T10:30:09.042Z,25.46
2024-02-20T10:31:09.051Z,25.46
2024-02-20T10:32:08.994Z,25.46
2024-02-20T10:33:09.275Z,25.46
2024-02-20T10:34:14.434Z,25.46
2024-02-20T10:35:10.174Z,25.45
2024-02-20T10:36:09.008Z,25.45
2024-02-20T10:37:09.077Z,25.42
2024-02-20T10:38:09.001Z,25.42
2024-02-20T10:39:09.009Z,25.41
2024-02-20T10:40:17.913Z,25.39
2024-02-20T10:41:10.059Z,25.38
2024-02-20T10:42:09.057Z,25.37
2024-02-20T10:43:09.058Z,25.35
2024-02-20T10:44:09.072Z,25.35
2024-02-20T10:45:09.029Z,25.34
2024-02-20T10:46:09.086Z,25.33
2024-02-20T10:47:09.009Z,25.33
2024-02-20T10:48:09.116Z,25.32
2024-02-20T10:49:09.123Z,25.31
2024-02-20T10:50:09.064Z,25.31
2024-02-20T10:51:09.025Z,25.30
2024-02-20T10:52:09.069Z,25.30
2024-02-20T10:53:09.024Z,25.29
2024-02-20T10:54:09.042Z,25.28
2024-02-20T10:55:18.089Z,25.27
2024-02-20T10:56:10.065Z,25.26
2024-02-20T10:57:09.021Z,25.26
2024-02-20T10:58:09.123Z,25.25
2024-02-20T10:59:09.088Z,25.25
2024-02-20T11:00:09.029Z,25.26
2024-02-20T11:01:09.170Z,25.26
2024-02-20T11:02:09.137Z,25.26
2024-02-20T11:03:09.108Z,25.26
2024-02-20T11:05:09.126Z,25.25
2024-02-20T11:06:09.074Z,25.25
2024-02-20T11:07:09.263Z,25.26
2024-02-20T11:08:10.157Z,25.25
2024-02-20T11:09:09.060Z,25.25
2024-02-20T11:10:09.124Z,25.25
2024-02-20T11:11:09.111Z,25.25
2024-02-20T11:12:09.059Z,25.25
2024-02-20T11:13:09.122Z,25.25
2024-02-20T11:14:09.077Z,25.25
2024-02-20T11:15:09.072Z,25.25
2024-02-20T11:16:09.135Z,25.25
2024-02-20T11:17:17.027Z,25.24
2024-02-20T11:18:13.851Z,25.22
2024-02-20T11:19:09.350Z,25.22
2024-02-20T11:20:09.299Z,25.21
2024-02-20T11:21:09.122Z,25.21
2024-02-20T11:22:09.484Z,25.21
2024-02-20T11:23:09.098Z,25.22
2024-02-20T11:24:09.096Z,25.21
2024-02-20T11:25:09.123Z,25.22
2024-02-20T11:26:09.768Z,25.22
2024-02-20T11:27:09.105Z,25.23
2024-02-20T11:28:09.106Z,25.23
2024-02-20T11:29:09.100Z,25.23
2024-02-20T11:30:09.103Z,25.22
2024-02-20T11:31:09.277Z,25.23
2024-02-20T11:32:09.117Z,25.23
2024-02-20T11:33:09.142Z,25.23
2024-02-20T11:34:09.206Z,25.23
2024-02-20T11:35:09.308Z,25.23
2024-02-20T11:36:09.076Z,25.23
2024-02-20T11:37:09.121Z,25.23
2024-02-20T11:38:09.187Z,25.23
2024-02-20T11:39:09.075Z,25.24
2024-02-20T11:40:31.139Z,25.23
2024-02-20T11:41:09.355Z,25.21
2024-02-20T11:42:09.084Z,25.22
2024-02-20T11:43:09.153Z,25.22
2024-02-20T11:44:09.086Z,25.22
2024-02-20T11:45:09.092Z,25.23
2024-02-20T11:46:09.187Z,25.23
2024-02-20T11:47:10.205Z,25.22
2024-02-20T11:48:09.266Z,25.24
2024-02-20T11:49:09.190Z,25.24
2024-02-20T11:50:09.277Z,25.23
2024-02-20T11:51:09.149Z,25.25
2024-02-20T11:52:09.269Z,25.24
2024-02-20T11:53:09.219Z,25.24
2024-02-20T11:54:09.272Z,25.24
2024-02-20T11:55:09.259Z,25.24
2024-02-20T11:56:09.262Z,25.25
2024-02-20T11:57:09.238Z,25.26
2024-02-20T11:58:09.243Z,25.25
2024-02-20T11:59:09.298Z,25.26
2024-02-20T12:00:09.280Z,25.25
2024-02-20T12:01:09.360Z,25.25
2024-02-20T12:02:09.430Z,25.25
2024-02-20T12:03:09.287Z,25.24
2024-02-20T12:04:09.419Z,25.23
2024-02-20T12:05:09.370Z,25.23
2024-02-20T12:06:10.158Z,25.23
2024-02-20T12:07:09.416Z,25.23
2024-02-20T12:08:09.466Z,25.22
2024-02-20T12:09:09.328Z,25.21
2024-02-20T12:10:09.361Z,25.21
2024-02-20T12:11:09.482Z,25.21
2024-02-20T12:12:09.424Z,25.20
2024-02-20T12:13:09.388Z,25.19
2024-02-20T12:14:09.383Z,25.19
2024-02-20T12:15:09.400Z,25.18
2024-02-20T12:16:09.446Z,25.17
2024-02-20T12:17:09.530Z,25.18
2024-02-20T12:18:09.628Z,25.17
2024-02-20T12:19:14.038Z,25.17
2024-02-20T12:20:10.537Z,25.15
2024-02-20T12:21:09.467Z,25.15
2024-02-20T12:22:09.612Z,25.15
2024-02-20T12:23:09.478Z,25.14
2024-02-20T12:24:09.477Z,25.15
2024-02-20T12:25:09.526Z,25.13
2024-02-20T12:26:31.494Z,25.14
2024-02-20T12:27:09.510Z,25.11
2024-02-20T12:28:09.526Z,25.14
2024-02-20T12:29:09.489Z,25.13
2024-02-20T12:30:09.514Z,25.14
2024-02-20T12:31:09.707Z,25.14
2024-02-20T12:32:09.504Z,25.14
2024-02-20T12:33:09.558Z,25.15
2024-02-20T12:34:09.709Z,25.14
2024-02-20T12:35:09.603Z,25.14
2024-02-20T12:36:09.527Z,25.14
2024-02-20T12:37:09.744Z,25.15
2024-02-20T12:38:09.528Z,25.14
2024-02-20T12:39:09.515Z,25.15
2024-02-20T12:40:09.554Z,25.15
2024-02-20T12:41:09.501Z,25.15
2024-02-20T12:42:09.514Z,25.15
2024-02-20T12:43:09.533Z,25.15
2024-02-20T12:44:09.517Z,25.15
2024-02-20T12:45:09.491Z,25.15
2024-02-20T12:46:09.592Z,25.15
2024-02-20T12:47:09.509Z,25.15
2024-02-20T12:48:09.617Z,25.16
2024-02-20T12:49:09.600Z,25.14
2024-02-20T12:50:09.531Z,25.15
2024-02-20T12:51:09.496Z,25.15
2024-02-20T12:52:09.623Z,25.16
2024-02-20T12:53:09.528Z,25.16
2024-02-20T12:54:09.498Z,25.16
2024-02-20T12:55:09.557Z,25.16